createdAt,value
2018-06-11T00:00:16.325Z,29.13
2018-06-11T00:02:44.640Z,31.13
2018-06-11T00:05:12.944Z,32.23
2018-06-11T00:07:41.258Z,32.53
2018-06-11T00:10:09.590Z,34.13
2018-06-11T00:12:37.919Z,34.00
2018-06-11T00:15:06.249Z,29.43
2018-06-11T00:17:34.566Z,29.10
2018-06-11T00:20:02.925Z,28.53
2018-06-11T00:22:31.255Z,28.77
2018-06-11T00:24:59.553Z,26.23
2018-06-11T00:27:27.864Z,29.73
2018-06-11T00:29:56.183Z,25.57
2018-06-11T00:32:24.509Z,26.67
2018-06-11T00:34:52.800Z,25.00
2018-06-11T00:37:21.114Z,26.37
2018-06-11T00:39:49.454Z,27.20
2018-06-11T00:42:17.765Z,28.30
2018-06-11T00:44:46.295Z,27.20
2018-06-11T00:47:14.617Z,32.07
2018-06-11T00:49:42.924Z,33.87
2018-06-11T00:52:11.253Z,34.27
2018-06-11T00:54:39.549Z,30.20
2018-06-11T00:57:07.894Z,31.67
2018-06-11T00:59:36.198Z,31.93
2018-06-11T01:02:04.586Z,31.93
2018-06-11T01:04:32.885Z,30.00
2018-06-11T01:07:01.209Z,29.60
2018-06-11T01:09:29.529Z,33.50
2018-06-11T01:11:57.831Z,31.70
2018-06-11T01:14:26.189Z,33.07
2018-06-11T01:16:54.492Z,32.17
2018-06-11T01:19:22.866Z,34.67
2018-06-11T01:21:51.172Z,34.13
2018-06-11T01:24:19.509Z,32.83
2018-06-11T01:26:47.809Z,29.67
2018-06-11T01:29:16.132Z,28.17
2018-06-11T01:31:44.429Z,26.57
2018-06-11T01:34:12.749Z,28.77
2018-06-11T01:36:41.048Z,29.50
2018-06-11T01:39:09.375Z,29.87
2018-06-11T01:41:37.681Z,27.50
2018-06-11T01:44:06.036Z,28.50
2018-06-11T01:46:34.329Z,29.57
2018-06-11T01:49:02.676Z,28.53
2018-06-11T01:51:30.973Z,28.70
2018-06-11T01:53:59.283Z,27.67
2018-06-11T01:56:27.593Z,28.47
2018-06-11T01:58:55.933Z,27.27
2018-06-11T02:01:24.234Z,26.30
2018-06-11T02:03:52.556Z,28.97
2018-06-11T02:06:20.861Z,27.37
2018-06-11T02:08:49.213Z,27.93
2018-06-11T02:11:17.550Z,28.17
2018-06-11T02:13:45.869Z,30.80
2018-06-11T02:16:14.185Z,30.10
2018-06-11T02:18:42.497Z,30.97
2018-06-11T02:21:10.833Z,32.87
2018-06-11T02:23:39.133Z,32.20
2018-06-11T02:26:07.484Z,32.97
2018-06-11T02:28:35.813Z,33.13
2018-06-11T02:31:04.142Z,35.63
2018-06-11T02:33:32.441Z,35.30
2018-06-11T02:36:00.777Z,36.07
2018-06-11T02:38:29.101Z,35.53
2018-06-11T02:40:57.443Z,33.37
2018-06-11T02:43:25.777Z,39.63
2018-06-11T02:45:54.118Z,37.47
2018-06-11T02:48:22.446Z,33.00
2018-06-11T02:50:50.805Z,34.83
2018-06-11T02:53:19.125Z,31.00
2018-06-11T02:55:47.479Z,32.77
2018-06-11T02:58:15.782Z,32.47
2018-06-11T03:00:44.111Z,30.90
2018-06-11T03:03:12.429Z,32.20
2018-06-11T03:05:40.741Z,30.70
2018-06-11T03:08:09.037Z,32.37
2018-06-11T03:10:37.381Z,32.43
2018-06-11T03:13:05.989Z,32.00
2018-06-11T03:15:34.404Z,33.23
2018-06-11T03:18:02.645Z,33.23
2018-06-11T03:20:30.982Z,31.93
2018-06-11T03:22:59.286Z,30.47
2018-06-11T03:25:27.634Z,34.20
2018-06-11T03:27:55.937Z,35.03
2018-06-11T03:30:24.284Z,38.80
2018-06-11T03:32:52.581Z,39.20
2018-06-11T03:35:21.009Z,37.47
2018-06-11T03:37:49.353Z,39.13
2018-06-11T03:40:17.677Z,40.57
2018-06-11T03:42:45.980Z,35.40
2018-06-11T03:45:14.313Z,35.00
2018-06-11T03:47:42.641Z,33.80
2018-06-11T03:50:10.962Z,35.60
2018-06-11T03:52:39.258Z,36.40
2018-06-11T03:55:07.582Z,36.10
2018-06-11T03:57:35.893Z,37.43
2018-06-11T04:00:04.289Z,38.43
2018-06-11T04:02:32.604Z,39.10
2018-06-11T04:05:00.901Z,36.87
2018-06-11T04:07:29.247Z,38.87
2018-06-11T04:09:57.577Z,36.40
2018-06-11T04:12:25.895Z,37.53
2018-06-11T04:14:54.218Z,36.13
2018-06-11T04:17:22.536Z,33.77
2018-06-11T04:19:50.857Z,32.07
2018-06-11T04:22:19.184Z,33.10
2018-06-11T04:24:47.578Z,32.53
2018-06-11T04:27:15.893Z,31.33
2018-06-11T04:29:44.196Z,31.53
2018-06-11T04:32:12.530Z,34.73
2018-06-11T04:34:40.821Z,34.63
2018-06-11T04:37:09.153Z,28.73
2018-06-11T04:39:37.524Z,26.43
2018-06-11T04:42:05.833Z,29.37
2018-06-11T04:44:34.149Z,30.00
2018-06-11T04:47:02.465Z,28.90
2018-06-11T04:49:30.772Z,30.00
2018-06-11T04:51:59.093Z,31.33
2018-06-11T04:54:27.394Z,27.57
2018-06-11T04:56:55.752Z,30.07
2018-06-11T04:59:24.069Z,32.53
2018-06-11T05:01:52.507Z,33.50
2018-06-11T05:04:20.853Z,34.80
2018-06-11T05:06:50.314Z,33.77
2018-06-11T05:09:19.172Z,30.80
2018-06-11T05:11:48.700Z,32.10
2018-06-11T05:14:17.537Z,34.17
2018-06-11T05:16:47.195Z,32.00
2018-06-11T05:19:16.438Z,31.23
2018-06-11T05:21:46.054Z,36.57
2018-06-11T05:24:14.412Z,35.57
2018-06-11T05:26:44.364Z,36.10
2018-06-11T05:29:13.368Z,37.77
2018-06-11T05:31:42.150Z,34.63
2018-06-11T05:34:10.485Z,38.50
2018-06-11T05:36:39.672Z,36.70
2018-06-11T05:39:10.522Z,36.70
2018-06-11T05:41:39.510Z,32.80
2018-06-11T05:44:08.849Z,38.10
2018-06-11T05:46:37.525Z,33.67
2018-06-11T05:49:06.980Z,35.43
2018-06-11T05:51:36.173Z,31.57
2018-06-11T05:54:05.304Z,31.27
2018-06-11T05:56:34.067Z,32.63
2018-06-11T05:59:03.763Z,32.70
2018-06-11T06:01:32.592Z,33.97
2018-06-11T06:04:02.509Z,30.23
2018-06-11T06:06:31.432Z,29.97
2018-06-11T06:09:01.934Z,26.70
2018-06-11T06:11:30.923Z,29.17
2018-06-11T06:14:00.160Z,19.57
2018-06-11T06:16:28.730Z,28.90
2018-06-11T06:18:57.505Z,25.77
2018-06-11T06:21:26.665Z,28.70
2018-06-11T06:23:56.168Z,26.93
2018-06-11T06:26:26.213Z,27.03
2018-06-11T06:28:56.773Z,31.13
2018-06-11T06:31:25.704Z,26.90
2018-06-11T06:33:54.613Z,28.00
2018-06-11T06:36:23.921Z,27.70
2018-06-11T06:38:53.636Z,28.40
2018-06-11T06:41:22.926Z,22.70
2018-06-11T06:43:51.905Z,26.77
2018-06-11T06:46:27.187Z,25.57
2018-06-11T06:48:56.175Z,29.37
2018-06-11T06:51:25.474Z,28.63
2018-06-11T06:53:53.806Z,26.43
2018-06-11T06:56:23.726Z,28.23
2018-06-11T06:58:53.536Z,29.67
2018-06-11T07:01:23.118Z,25.00
2018-06-11T07:03:52.521Z,30.97
2018-06-11T07:06:22.162Z,29.17
2018-06-11T07:08:51.089Z,29.53
2018-06-11T07:11:19.971Z,27.70
2018-06-11T07:13:48.575Z,25.13
2018-06-11T07:16:17.465Z,25.10
2018-06-11T07:18:48.393Z,27.97
2018-06-11T07:21:18.831Z,28.17
2018-06-11T07:23:47.693Z,27.90
2018-06-11T07:26:16.616Z,30.37
2018-06-11T07:28:47.219Z,28.60
2018-06-11T07:31:15.645Z,28.77
2018-06-11T07:33:43.917Z,25.87
2018-06-11T07:36:12.504Z,26.03
2018-06-11T07:38:42.143Z,21.67
2018-06-11T07:41:11.604Z,24.07
2018-06-11T07:43:40.506Z,28.17
2018-06-11T07:46:09.583Z,25.03
2018-06-11T07:48:40.513Z,23.37
2018-06-11T07:51:09.331Z,24.67
2018-06-11T07:53:37.646Z,25.43
2018-06-11T07:56:05.994Z,25.70
2018-06-11T07:58:36.415Z,23.97
2018-06-11T08:01:10.254Z,23.13
2018-06-11T08:03:42.070Z,24.17
2018-06-11T08:06:10.627Z,24.47
2018-06-11T08:08:44.661Z,24.50
2018-06-11T08:11:14.918Z,22.97
2018-06-11T08:13:43.915Z,23.53
2018-06-11T08:16:13.671Z,24.30
2018-06-11T08:18:42.923Z,26.23
2018-06-11T08:21:12.495Z,26.37
2018-06-11T08:23:40.796Z,25.30
2018-06-11T08:26:10.944Z,24.70
2018-06-11T08:28:39.752Z,25.23
2018-06-11T08:31:09.409Z,23.63
2018-06-11T08:33:39.062Z,23.30
2018-06-11T09:52:10.620Z,19.63
2018-06-11T09:54:39.482Z,20.60
2018-06-11T09:57:08.501Z,19.60
2018-06-11T09:59:37.341Z,17.07
2018-06-11T10:02:07.010Z,17.70
2018-06-11T10:04:36.320Z,20.43
2018-06-11T10:07:05.069Z,17.60
2018-06-11T10:09:36.140Z,18.33
2018-06-11T10:12:04.971Z,17.63
2018-06-11T10:14:33.901Z,18.63
2018-06-11T10:17:03.728Z,18.27
2018-06-11T10:19:32.705Z,17.93
2018-06-11T10:22:01.923Z,18.40
2018-06-11T10:24:30.535Z,17.20
2018-06-11T10:26:59.251Z,18.73
2018-06-11T10:29:28.907Z,17.67
2018-06-11T10:31:57.357Z,19.93
2018-06-11T10:34:27.061Z,19.00
2018-06-11T10:36:56.695Z,20.43
2018-06-11T10:39:25.496Z,18.03
2018-06-11T10:41:54.771Z,21.20
2018-06-11T10:44:23.070Z,22.93
2018-06-11T10:46:51.941Z,21.07
2018-06-11T10:49:21.811Z,21.10
2018-06-11T10:51:51.444Z,20.23
2018-06-11T10:54:22.672Z,20.90
2018-06-11T10:56:51.299Z,20.10
2018-06-11T10:59:21.553Z,18.90
2018-06-11T11:01:51.824Z,17.00
2018-06-11T11:04:22.186Z,16.53
2018-06-11T11:06:51.149Z,16.70
2018-06-11T11:09:20.546Z,16.67
2018-06-11T11:11:49.950Z,19.23
2018-06-11T11:14:18.940Z,17.23
2018-06-11T11:16:47.738Z,17.37
2018-06-11T11:19:17.369Z,16.80
2018-06-11T11:21:46.075Z,17.77
2018-06-11T11:24:14.443Z,16.70
2018-06-11T11:26:43.197Z,16.90
2018-06-11T11:29:12.041Z,16.10
2018-06-11T11:31:41.475Z,17.43
2018-06-11T11:34:10.297Z,17.07
2018-06-11T11:36:40.419Z,16.00
2018-06-11T11:39:10.156Z,15.53
2018-06-11T11:41:39.868Z,16.77
2018-06-11T11:44:09.970Z,15.33
2018-06-11T11:46:39.736Z,15.63
2018-06-11T11:49:12.121Z,16.13
2018-06-11T11:51:42.347Z,15.67
2018-06-11T11:54:11.993Z,16.00
2018-06-11T11:56:43.775Z,16.37
2018-06-11T11:59:13.521Z,17.27
2018-06-11T12:01:42.857Z,15.93
2018-06-11T12:04:12.951Z,16.87
2018-06-11T12:06:43.304Z,19.87
2018-06-11T12:09:12.294Z,17.33
2018-06-11T12:11:41.988Z,17.20
2018-06-11T12:14:10.992Z,15.53
2018-06-11T12:16:39.917Z,16.60
2018-06-11T12:19:09.221Z,15.97
2018-06-11T12:21:38.328Z,16.90
2018-06-11T12:24:07.630Z,18.20
2018-06-11T12:26:36.423Z,20.63
2018-06-11T12:29:05.275Z,21.40
2018-06-11T12:31:35.155Z,20.30
2018-06-11T12:34:05.391Z,23.93
2018-06-11T12:36:34.854Z,28.43
2018-06-11T12:39:07.078Z,32.20
2018-06-11T12:41:37.197Z,38.57
2018-06-11T12:44:06.048Z,43.50
2018-06-11T12:46:36.456Z,45.23
2018-06-11T12:49:06.565Z,45.30
2018-06-11T12:51:34.897Z,52.33
2018-06-11T12:54:04.624Z,48.30
2018-06-11T12:56:33.690Z,54.73
2018-06-11T12:59:03.789Z,59.20
2018-06-11T13:01:35.757Z,75.83
2018-06-11T13:04:05.658Z,109.50
2018-06-11T13:06:36.023Z,71.20
2018-06-11T13:09:08.753Z,49.67
2018-06-11T13:11:37.932Z,16.00
2018-06-11T13:14:06.339Z,11.23
2018-06-11T13:16:35.589Z,9.03
2018-06-11T13:19:06.291Z,11.23
2018-06-11T13:21:35.798Z,9.90
2018-06-11T13:24:05.250Z,10.67
2018-06-11T13:26:34.450Z,10.40
2018-06-11T13:29:03.155Z,9.87
2018-06-11T13:31:31.784Z,9.20
2018-06-11T13:34:00.404Z,10.00
2018-06-11T13:36:30.066Z,11.77
2018-06-11T13:38:59.179Z,10.20
2018-06-11T13:41:32.161Z,11.33
2018-06-11T13:44:00.493Z,11.90
2018-06-11T13:46:29.581Z,8.17
2018-06-11T13:48:58.809Z,9.50
2018-06-11T13:51:27.944Z,10.97
2018-06-11T13:53:56.541Z,11.63
2018-06-11T13:56:25.681Z,11.80
2018-06-11T13:58:54.353Z,11.23
2018-06-11T14:01:23.245Z,9.73
2018-06-11T14:03:53.533Z,7.67
2018-06-11T14:06:22.473Z,8.73
2018-06-11T14:08:52.775Z,10.10
2018-06-11T14:11:21.673Z,9.57
2018-06-11T14:13:50.084Z,7.37
2018-06-11T14:16:20.152Z,13.10
2018-06-11T14:18:48.884Z,11.13
2018-06-11T14:21:17.614Z,10.10
2018-06-11T14:23:45.916Z,10.37
2018-06-11T14:26:15.909Z,6.70
2018-06-11T14:28:44.521Z,9.07
2018-06-11T14:31:13.964Z,11.73
2018-06-11T14:33:42.533Z,8.43
2018-06-11T14:36:11.282Z,9.27
2018-06-11T14:38:41.653Z,10.33
2018-06-11T14:41:11.032Z,11.07
2018-06-11T14:43:41.514Z,11.00
2018-06-11T14:46:10.958Z,10.20
2018-06-11T14:48:39.711Z,14.03
2018-06-11T14:51:08.521Z,12.10
2018-06-11T14:53:36.889Z,11.57
2018-06-11T14:56:06.553Z,11.90
2018-06-11T14:58:35.191Z,10.20
2018-06-11T15:01:04.841Z,11.53
2018-06-11T15:03:33.169Z,13.10
2018-06-11T15:06:03.302Z,13.57
2018-06-11T15:08:32.419Z,11.87
2018-06-11T15:11:01.485Z,15.90
2018-06-11T15:13:29.824Z,14.83
2018-06-11T15:15:58.137Z,11.77
2018-06-11T15:18:26.433Z,13.07
2018-06-11T15:20:54.769Z,11.87
2018-06-11T15:23:23.073Z,11.53
2018-06-11T15:25:51.394Z,13.73
2018-06-11T15:28:19.689Z,9.50
2018-06-11T15:30:48.008Z,12.93
2018-06-11T15:33:16.324Z,12.27
2018-06-11T15:35:44.661Z,13.40
2018-06-11T15:38:12.958Z,10.70
2018-06-11T15:40:41.305Z,11.90
2018-06-11T15:43:09.649Z,11.47
2018-06-11T15:45:37.950Z,10.23
2018-06-11T15:48:06.278Z,9.00
2018-06-11T15:50:34.580Z,10.57
2018-06-11T15:53:02.902Z,9.33
2018-06-11T15:55:31.199Z,10.10
2018-06-11T15:57:59.522Z,6.63
2018-06-11T16:00:27.823Z,8.90
2018-06-11T16:02:56.146Z,6.60
2018-06-11T16:05:24.464Z,8.50
2018-06-11T16:07:52.798Z,7.67
2018-06-11T16:10:21.113Z,10.70
2018-06-11T16:12:49.433Z,9.83
2018-06-11T16:15:17.753Z,9.33
2018-06-11T16:17:46.071Z,7.30
2018-06-11T16:20:14.409Z,6.63
2018-06-11T16:22:42.736Z,5.73
2018-06-11T16:25:11.043Z,6.47
2018-06-11T16:27:39.406Z,5.10
2018-06-11T16:30:07.702Z,6.60
2018-06-11T16:32:36.033Z,5.50
2018-06-11T16:35:04.385Z,7.80
2018-06-11T16:37:32.730Z,5.07
2018-06-11T16:40:01.041Z,5.20
2018-06-11T16:42:29.386Z,5.23
2018-06-11T16:44:57.681Z,5.10
2018-06-11T16:47:25.998Z,6.03
2018-06-11T16:49:54.297Z,6.40
2018-06-11T16:52:22.608Z,5.23
2018-06-11T16:54:50.941Z,4.30
2018-06-11T16:57:19.276Z,5.07
2018-06-11T16:59:47.573Z,3.73
2018-06-11T17:02:15.909Z,5.30
2018-06-11T17:04:44.273Z,4.40
2018-06-11T17:07:12.582Z,4.80
2018-06-11T17:09:40.879Z,5.43
2018-06-11T17:12:09.213Z,5.57
2018-06-11T17:14:37.505Z,5.83
2018-06-11T17:17:05.849Z,7.07
2018-06-11T17:19:34.141Z,8.13
2018-06-11T17:22:02.489Z,12.27
2018-06-11T17:24:30.809Z,10.00
2018-06-11T17:26:59.115Z,9.43
2018-06-11T17:29:27.424Z,9.60
2018-06-11T17:31:55.767Z,11.33
2018-06-11T17:34:24.108Z,12.20
2018-06-11T17:36:52.395Z,10.30
2018-06-11T17:39:20.765Z,11.90
2018-06-11T17:41:49.099Z,10.00
2018-06-11T17:44:17.425Z,9.40
2018-06-11T17:46:45.728Z,9.37
2018-06-11T17:49:14.025Z,9.30
2018-06-11T17:51:42.344Z,9.93
2018-06-11T17:54:10.666Z,8.53
2018-06-11T17:56:38.982Z,9.03
2018-06-11T17:59:07.313Z,8.40
2018-06-11T18:01:35.680Z,8.20
2018-06-11T18:04:04.039Z,10.10
2018-06-11T18:06:32.323Z,10.03
2018-06-11T18:09:00.622Z,8.97
2018-06-11T18:11:28.938Z,11.00
2018-06-11T18:13:57.234Z,8.93
2018-06-11T18:16:25.609Z,7.53
2018-06-11T18:18:53.924Z,9.50
2018-06-11T18:21:22.226Z,8.80
2018-06-11T18:23:50.528Z,8.97
2018-06-11T18:26:19.790Z,10.33
2018-06-11T18:28:48.112Z,11.07
2018-06-11T18:31:16.417Z,7.80
2018-06-11T18:33:44.729Z,8.43
2018-06-11T18:36:13.085Z,7.80
2018-06-11T18:38:41.401Z,9.00
2018-06-11T18:41:09.696Z,8.40
2018-06-11T18:43:38.031Z,9.00
2018-06-11T18:46:06.350Z,10.53
2018-06-11T18:48:34.665Z,8.83
2018-06-11T18:51:02.970Z,10.57
2018-06-11T18:53:31.295Z,9.97
2018-06-11T18:55:59.609Z,9.93
2018-06-11T18:58:27.933Z,10.00
2018-06-11T19:00:56.241Z,8.87
2018-06-11T19:03:24.545Z,7.93
2018-06-11T19:05:52.870Z,8.53
2018-06-11T19:08:21.193Z,9.80
2018-06-11T19:10:49.494Z,13.60
2018-06-11T19:13:17.837Z,11.90
2018-06-11T19:15:46.149Z,10.37
2018-06-11T19:18:14.470Z,14.07
2018-06-11T19:20:42.794Z,11.43
2018-06-11T19:23:11.108Z,11.80
2018-06-11T19:25:39.424Z,13.70
2018-06-11T19:28:07.773Z,12.57
2018-06-11T19:30:36.174Z,12.13
2018-06-11T19:33:04.566Z,12.90
2018-06-11T19:35:32.875Z,14.07
2018-06-11T19:38:01.134Z,18.37
2018-06-11T19:40:29.721Z,14.67
2018-06-11T19:42:58.029Z,13.93
2018-06-11T19:45:26.354Z,15.10
2018-06-11T19:47:54.728Z,15.10
2018-06-11T19:50:23.030Z,13.50
2018-06-11T19:52:51.439Z,13.40
2018-06-11T19:55:19.820Z,13.23
2018-06-11T19:57:48.130Z,14.57
2018-06-11T20:00:16.476Z,17.77
2018-06-11T20:02:44.798Z,14.77
2018-06-11T20:05:13.250Z,16.77
2018-06-11T20:07:41.664Z,15.00
2018-06-11T20:10:10.099Z,18.27
2018-06-11T20:12:38.417Z,17.50
2018-06-11T20:15:06.761Z,18.73
2018-06-11T20:17:35.065Z,17.60
2018-06-11T20:20:03.421Z,15.60
2018-06-11T20:22:31.742Z,18.73
2018-06-11T20:25:00.062Z,15.23
2018-06-11T20:27:28.380Z,21.57
2018-06-11T20:29:56.705Z,18.13
2018-06-11T20:32:25.062Z,17.33
2018-06-11T20:34:53.417Z,19.30
2018-06-11T20:37:21.769Z,19.77
2018-06-11T20:39:50.110Z,13.93
2018-06-11T20:42:18.440Z,16.60
2018-06-11T20:44:46.822Z,17.83
2018-06-11T20:47:15.152Z,13.63
2018-06-11T20:49:43.448Z,20.17
2018-06-11T20:52:11.773Z,22.73
2018-06-11T20:54:40.090Z,16.60
2018-06-11T20:57:08.402Z,17.70
2018-06-11T20:59:36.931Z,22.73
2018-06-11T21:02:05.269Z,20.77
2018-06-11T21:04:33.576Z,19.37
2018-06-11T21:07:01.909Z,19.07
2018-06-11T21:09:30.222Z,20.07
2018-06-11T21:11:58.541Z,22.57
2018-06-11T21:14:26.853Z,20.77
2018-06-11T21:16:55.229Z,20.43
2018-06-11T21:19:23.525Z,18.17
2018-06-11T21:21:51.873Z,20.13
2018-06-11T21:24:20.180Z,17.13
2018-06-11T21:26:48.506Z,16.17
2018-06-11T21:29:17.013Z,16.53
2018-06-11T21:31:45.376Z,18.90
2018-06-11T21:34:13.794Z,16.43
2018-06-11T21:36:42.116Z,20.00
2018-06-11T21:39:10.453Z,16.43
2018-06-11T21:41:38.840Z,16.00
2018-06-11T21:44:07.180Z,15.07
2018-06-11T21:46:35.578Z,15.90
2018-06-11T21:49:03.921Z,13.47
2018-06-11T21:51:33.044Z,15.10
2018-06-11T21:54:01.414Z,13.67
2018-06-11T21:56:29.837Z,15.57
2018-06-11T21:58:58.134Z,16.10
2018-06-11T22:01:26.476Z,15.13
2018-06-11T22:03:54.855Z,14.23
2018-06-11T22:06:23.130Z,20.97
2018-06-11T22:08:51.461Z,28.83
2018-06-11T22:11:19.785Z,18.87
2018-06-11T22:13:48.105Z,16.93
2018-06-11T22:16:16.489Z,17.00
2018-06-11T22:18:44.804Z,16.33
2018-06-11T22:21:13.137Z,19.13
2018-06-11T22:23:41.437Z,19.47
2018-06-11T22:26:09.758Z,21.20
2018-06-11T22:28:38.936Z,27.40
2018-06-11T22:31:07.265Z,23.70
2018-06-11T22:33:35.585Z,27.63
2018-06-11T22:36:03.895Z,22.83
2018-06-11T22:38:32.229Z,25.07
2018-06-11T22:41:00.516Z,20.23
2018-06-11T22:43:28.925Z,22.70
2018-06-11T22:45:57.233Z,18.23
2018-06-11T22:48:25.558Z,26.87
2018-06-11T22:50:53.894Z,21.97
2018-06-11T22:53:22.221Z,23.53
2018-06-11T22:55:50.544Z,20.90
2018-06-11T22:58:18.860Z,24.60
2018-06-11T23:00:47.217Z,19.83
2018-06-11T23:03:15.560Z,22.33
2018-06-11T23:05:43.866Z,26.33
2018-06-11T23:08:12.222Z,22.80
2018-06-11T23:10:40.531Z,21.30
2018-06-11T23:13:08.873Z,22.70
2018-06-11T23:15:37.180Z,21.57
2018-06-11T23:18:05.606Z,21.10
2018-06-11T23:20:33.909Z,22.03
2018-06-11T23:23:02.226Z,26.23
2018-06-11T23:25:30.552Z,25.77
2018-06-11T23:27:58.917Z,23.10
2018-06-11T23:30:27.229Z,24.50
2018-06-11T23:32:55.570Z,27.20
2018-06-11T23:35:23.867Z,31.57
2018-06-11T23:37:52.194Z,30.47
2018-06-11T23:40:20.486Z,30.50
2018-06-11T23:42:48.833Z,40.83
2018-06-11T23:45:17.137Z,43.10
2018-06-11T23:47:45.464Z,36.50
2018-06-11T23:50:13.780Z,36.60
2018-06-11T23:52:42.101Z,42.70
2018-06-11T23:55:10.393Z,40.27
2018-06-11T23:57:38.784Z,33.50
